Talega, CA

3:31 PM PST on December 03, 2016 (GMT -0800)
Upr Cristianitos Cyn | | Change Station
Active Advisory: Fire Weather Warning

Elev 473 ft 33.50 °N, 117.56 °W | Updated 14 minutes ago

Clear
Clear
65.7 °F
Feels Like 65.7 °F
N
3.0
Wind Variable Wind from SW

Today
High -- | Low -- °F
--% Chance of Precip.
Yesterday
High -- | Low -- °F
Precip. -- in
Pressure 30.29 in
Visibility 9.0 miles
Clouds Clear
Dew Point 22 °F
Humidity 19%
Rainfall 0.00 in
Snow Depth Not available.
6:38 AM 4:42 PM
Waxing Crescent, 18% visible
METAR KNXF 032256Z AUTO 31014KT 9SM CLR 18/05 A3003 RMK AO2 SLP256 T01780050 $
Pressure 30.29 in
Visibility 9.0 miles
Clouds Clear
Dew Point 22 °F
Humidity 19%
Rainfall 0.00 in
Snow Depth Not available.
6:38 AM 4:42 PM
Waxing Crescent, 18% visible
METAR KNXF 032256Z AUTO 31014KT 9SM CLR 18/05 A3003 RMK AO2 SLP256 T01780050 $

10-Day Weather Forecast

Almanac

Astronomy

Dec. 03, 2016 Rise Set
Actual Time
Civil Twilight
Nautical Twilight
Astronomical Twilight
Moon
Length of Visible Light
Length of Day
Tomorrow will be .
, % of the Moon is Illuminated

Today's Extremes

State Highs State Lows

Community

WunderPhotos

Upload Photos

1,955,540 photos uploaded!

WunderBlog® & News

Nearby

Air Quality

  Air Quality AQ Index Pollutant
Not available.

Snow Depth

Station Depth Elevation

Earthquake Activity

City Distance Mag. Time & Date
Minimum magnitude displayed is 2.5.

Coastal Water Temperatures

Place Temperature

Stations

Nearby Weather Stations

Station Location Temp. Windchill Dew Point Humidity Wind Precip. Elev Updated Type
                   

Watches & Warnings

Fire Weather Warning
Issued: 9:12 AM PST Dec. 3, 2016 – National Weather Service

... Red flag warning remains in effect until 6 PM PST this evening
for strong gusty winds and low humidity for the inland Empire and
the San Bernardino County mountains...

* wind... north to northeast winds 20 to 40 mph with gusts to 45
mph on the coastal slopes of the mountains and through the
Cajon Pass.

* Humidity... humidity falling to 10 to 15 percent this afternoon
with poor recovery overnight in areas where the wind continues.

* Timing... through 6 PM this afternoon.

* Outlook... winds will weaken this evening most areas but may
remain elevated locally near the Cajon Pass overnight. Humidity
will improve most areas overnight... but remain low in spots
where some wind continues.

* Impacts... any fires that start may exhibit rapid growth and
extreme fire behavior.

Precautionary/preparedness actions...

A red flag warning means that critical fire weather conditions
are either occurring now... or will shortly. A combination of
strong winds... low relative humidity... and warm temperatures will
contribute to extreme fire behavior.



Jad